Terminal Aerodrome Forecast
Issued by NWS

Home | Current Version | Previous Version | Text Only | Print | Product List | Glossary On
Versions: 1 2 3 4 5 6 7 8 9 10 11 12 13 14 15 16 17
000
FTUS43 KGRB 200537
TAFAUW
TAF
KAUW 200537Z 2006/2106 26005KT P6SM SKC
     FM200700 21003KT 5SM BR FEW150
     FM201000 VRB03KT 4SM BR SCT120
     FM201300 21006KT P6SM SCT200
     FM201800 20010KT P6SM SCT040 BKN120 PROB30 2022/2104 3SM -TSRA
      BKN040CB=

USA.gov is the U.S. government's official web portal to all federal, state and local government web resources and services.